sensor_id;sensor_type;location;lat;lon;timestamp;P1;durP1;ratioP1;P2;durP2;ratioP2
323;SDS011;149;51.094;17.002;2023-06-22T00:01:21;18.40;;;16.87;;
323;SDS011;149;51.094;17.002;2023-06-22T00:03:49;17.97;;;16.37;;
323;SDS011;149;51.094;17.002;2023-06-22T00:06:17;16.00;;;14.50;;
323;SDS011;149;51.094;17.002;2023-06-22T00:08:47;18.23;;;16.73;;
323;SDS011;149;51.094;17.002;2023-06-22T00:11:15;17.30;;;15.77;;
323;SDS011;149;51.094;17.002;2023-06-22T00:13:43;17.57;;;15.97;;
323;SDS011;149;51.094;17.002;2023-06-22T00:16:11;16.80;;;15.23;;
323;SDS011;149;51.094;17.002;2023-06-22T00:18:38;18.03;;;16.33;;
323;SDS011;149;51.094;17.002;2023-06-22T00:21:06;17.80;;;16.10;;
323;SDS011;149;51.094;17.002;2023-06-22T00:23:34;17.67;;;16.07;;
323;SDS011;149;51.094;17.002;2023-06-22T00:26:02;17.57;;;15.97;;
323;SDS011;149;51.094;17.002;2023-06-22T00:28:29;17.43;;;15.83;;
323;SDS011;149;51.094;17.002;2023-06-22T00:30:56;18.47;;;16.77;;
323;SDS011;149;51.094;17.002;2023-06-22T00:33:24;18.33;;;16.57;;
323;SDS011;149;51.094;17.002;2023-06-22T00:35:52;17.10;;;15.70;;
323;SDS011;149;51.094;17.002;2023-06-22T00:38:20;17.03;;;15.53;;
323;SDS011;149;51.094;17.002;2023-06-22T00:40:48;17.07;;;15.27;;
323;SDS011;149;51.094;17.002;2023-06-22T00:43:16;18.20;;;16.50;;
323;SDS011;149;51.094;17.002;2023-06-22T00:45:44;18.20;;;16.70;;
323;SDS011;149;51.094;17.002;2023-06-22T00:48:14;18.00;;;16.23;;
323;SDS011;149;51.094;17.002;2023-06-22T00:50:42;18.87;;;17.20;;
323;SDS011;149;51.094;17.002;2023-06-22T00:53:10;19.60;;;17.93;;
323;SDS011;149;51.094;17.002;2023-06-22T00:55:38;19.10;;;17.33;;
323;SDS011;149;51.094;17.002;2023-06-22T00:58:10;16.20;;;14.70;;
323;SDS011;149;51.094;17.002;2023-06-22T01:00:38;20.73;;;17.27;;
323;SDS011;149;51.094;17.002;2023-06-22T01:03:06;17.50;;;15.90;;
323;SDS011;149;51.094;17.002;2023-06-22T01:05:38;19.57;;;17.87;;
323;SDS011;149;51.094;17.002;2023-06-22T01:13:02;18.50;;;16.80;;
323;SDS011;149;51.094;17.002;2023-06-22T01:15:33;18.60;;;16.70;;
323;SDS011;149;51.094;17.002;2023-06-22T01:18:04;19.87;;;17.87;;
323;SDS011;149;51.094;17.002;2023-06-22T01:20:32;18.27;;;16.27;;
323;SDS011;149;51.094;17.002;2023-06-22T01:23:05;19.30;;;17.43;;
323;SDS011;149;51.094;17.002;2023-06-22T01:25:45;20.87;;;18.93;;
323;SDS011;149;51.094;17.002;2023-06-22T01:31:00;20.47;;;18.57;;
323;SDS011;149;51.094;17.002;2023-06-22T01:33:36;18.80;;;16.90;;
323;SDS011;149;51.094;17.002;2023-06-22T01:36:03;21.10;;;19.10;;
323;SDS011;149;51.094;17.002;2023-06-22T01:38:32;18.83;;;16.93;;
323;SDS011;149;51.094;17.002;2023-06-22T01:41:02;21.90;;;19.70;;
323;SDS011;149;51.094;17.002;2023-06-22T01:43:30;19.43;;;17.63;;
323;SDS011;149;51.094;17.002;2023-06-22T01:46:00;19.27;;;17.30;;
323;SDS011;149;51.094;17.002;2023-06-22T01:48:28;20.33;;;18.43;;
323;SDS011;149;51.094;17.002;2023-06-22T01:50:57;18.27;;;16.53;;
323;SDS011;149;51.094;17.002;2023-06-22T01:53:27;20.03;;;17.97;;
323;SDS011;149;51.094;17.002;2023-06-22T01:55:57;20.53;;;18.57;;
323;SDS011;149;51.094;17.002;2023-06-22T01:58:25;20.03;;;17.97;;
323;SDS011;149;51.094;17.002;2023-06-22T02:00:56;19.47;;;17.67;;
323;SDS011;149;51.094;17.002;2023-06-22T02:03:26;20.20;;;18.20;;
323;SDS011;149;51.094;17.002;2023-06-22T02:06:01;20.87;;;18.97;;
323;SDS011;149;51.094;17.002;2023-06-22T02:08:46;20.07;;;18.07;;
323;SDS011;149;51.094;17.002;2023-06-22T02:11:14;20.07;;;18.00;;
323;SDS011;149;51.094;17.002;2023-06-22T02:13:42;19.47;;;17.57;;
323;SDS011;149;51.094;17.002;2023-06-22T02:16:10;19.77;;;17.70;;
323;SDS011;149;51.094;17.002;2023-06-22T02:18:38;19.83;;;18.13;;
323;SDS011;149;51.094;17.002;2023-06-22T02:21:06;21.30;;;19.20;;
323;SDS011;149;51.094;17.002;2023-06-22T02:23:38;19.50;;;17.57;;
323;SDS011;149;51.094;17.002;2023-06-22T02:26:06;19.90;;;18.00;;
323;SDS011;149;51.094;17.002;2023-06-22T02:28:33;22.63;;;20.40;;
323;SDS011;149;51.094;17.002;2023-06-22T02:31:01;21.63;;;19.43;;
323;SDS011;149;51.094;17.002;2023-06-22T02:33:28;20.83;;;18.83;;
323;SDS011;149;51.094;17.002;2023-06-22T02:35:56;20.00;;;18.30;;
323;SDS011;149;51.094;17.002;2023-06-22T02:38:25;22.03;;;19.93;;
323;SDS011;149;51.094;17.002;2023-06-22T02:40:52;21.43;;;19.37;;
323;SDS011;149;51.094;17.002;2023-06-22T02:43:21;22.20;;;20.10;;
323;SDS011;149;51.094;17.002;2023-06-22T02:45:48;21.63;;;19.57;;
323;SDS011;149;51.094;17.002;2023-06-22T02:48:15;22.60;;;20.37;;
323;SDS011;149;51.094;17.002;2023-06-22T02:50:43;21.23;;;19.00;;
323;SDS011;149;51.094;17.002;2023-06-22T02:53:10;21.43;;;19.47;;
323;SDS011;149;51.094;17.002;2023-06-22T02:55:37;21.07;;;18.97;;
323;SDS011;149;51.094;17.002;2023-06-22T02:58:07;20.73;;;18.83;;
323;SDS011;149;51.094;17.002;2023-06-22T03:00:35;21.73;;;19.63;;
323;SDS011;149;51.094;17.002;2023-06-22T03:03:03;22.33;;;20.07;;
323;SDS011;149;51.094;17.002;2023-06-22T03:05:30;23.33;;;19.80;;
323;SDS011;149;51.094;17.002;2023-06-22T03:08:01;19.80;;;17.90;;
323;SDS011;149;51.094;17.002;2023-06-22T03:10:28;21.50;;;19.40;;
323;SDS011;149;51.094;17.002;2023-06-22T03:12:56;24.57;;;18.80;;
323;SDS011;149;51.094;17.002;2023-06-22T03:15:26;23.80;;;20.63;;
323;SDS011;149;51.094;17.002;2023-06-22T03:17:56;22.23;;;19.90;;
323;SDS011;149;51.094;17.002;2023-06-22T03:20:23;21.70;;;19.70;;
323;SDS011;149;51.094;17.002;2023-06-22T03:22:52;19.80;;;18.00;;
323;SDS011;149;51.094;17.002;2023-06-22T03:25:20;21.67;;;19.67;;
323;SDS011;149;51.094;17.002;2023-06-22T03:27:49;20.33;;;18.43;;
323;SDS011;149;51.094;17.002;2023-06-22T03:30:18;21.53;;;19.30;;
323;SDS011;149;51.094;17.002;2023-06-22T03:32:45;22.97;;;20.87;;
323;SDS011;149;51.094;17.002;2023-06-22T03:35:13;21.33;;;19.23;;
323;SDS011;149;51.094;17.002;2023-06-22T03:37:41;20.97;;;19.17;;
323;SDS011;149;51.094;17.002;2023-06-22T03:40:09;20.60;;;18.70;;
323;SDS011;149;51.094;17.002;2023-06-22T03:42:36;20.97;;;18.93;;
323;SDS011;149;51.094;17.002;2023-06-22T03:45:05;20.37;;;18.57;;
323;SDS011;149;51.094;17.002;2023-06-22T03:47:34;24.50;;;22.00;;
323;SDS011;149;51.094;17.002;2023-06-22T03:50:01;22.17;;;19.97;;
323;SDS011;149;51.094;17.002;2023-06-22T03:52:30;21.50;;;18.73;;
323;SDS011;149;51.094;17.002;2023-06-22T03:54:57;23.20;;;18.63;;
323;SDS011;149;51.094;17.002;2023-06-22T03:57:26;23.27;;;20.97;;
323;SDS011;149;51.094;17.002;2023-06-22T03:59:56;19.63;;;17.97;;
323;SDS011;149;51.094;17.002;2023-06-22T04:02:24;22.97;;;20.87;;
323;SDS011;149;51.094;17.002;2023-06-22T04:04:52;21.30;;;19.27;;
323;SDS011;149;51.094;17.002;2023-06-22T04:07:20;21.60;;;19.40;;
323;SDS011;149;51.094;17.002;2023-06-22T04:09:48;22.20;;;19.90;;
323;SDS011;149;51.094;17.002;2023-06-22T04:12:15;25.93;;;21.97;;
323;SDS011;149;51.094;17.002;2023-06-22T04:14:42;23.80;;;21.70;;
323;SDS011;149;51.094;17.002;2023-06-22T04:17:10;24.70;;;22.30;;
323;SDS011;149;51.094;17.002;2023-06-22T04:19:40;23.97;;;21.87;;
323;SDS011;149;51.094;17.002;2023-06-22T04:22:10;24.13;;;21.50;;
323;SDS011;149;51.094;17.002;2023-06-22T04:24:38;24.37;;;22.27;;
323;SDS011;149;51.094;17.002;2023-06-22T04:27:08;23.30;;;21.20;;
323;SDS011;149;51.094;17.002;2023-06-22T04:29:35;26.43;;;23.90;;
323;SDS011;149;51.094;17.002;2023-06-22T04:32:05;24.57;;;22.10;;
323;SDS011;149;51.094;17.002;2023-06-22T04:34:33;23.57;;;21.37;;
323;SDS011;149;51.094;17.002;2023-06-22T04:37:00;25.97;;;23.30;;
323;SDS011;149;51.094;17.002;2023-06-22T04:39:28;22.57;;;20.57;;
323;SDS011;149;51.094;17.002;2023-06-22T04:41:55;23.10;;;20.90;;
323;SDS011;149;51.094;17.002;2023-06-22T04:44:27;24.00;;;21.60;;
323;SDS011;149;51.094;17.002;2023-06-22T04:46:55;24.80;;;22.60;;
323;SDS011;149;51.094;17.002;2023-06-22T04:49:30;23.20;;;21.13;;
323;SDS011;149;51.094;17.002;2023-06-22T04:52:07;22.60;;;20.53;;
323;SDS011;149;51.094;17.002;2023-06-22T04:54:37;28.20;;;21.70;;
323;SDS011;149;51.094;17.002;2023-06-22T04:57:05;25.30;;;22.73;;
323;SDS011;149;51.094;17.002;2023-06-22T04:59:41;26.77;;;24.27;;
323;SDS011;149;51.094;17.002;2023-06-22T05:02:09;24.40;;;21.90;;
323;SDS011;149;51.094;17.002;2023-06-22T05:04:36;25.57;;;23.37;;
323;SDS011;149;51.094;17.002;2023-06-22T05:07:07;26.33;;;23.80;;
323;SDS011;149;51.094;17.002;2023-06-22T05:09:35;27.23;;;24.50;;
323;SDS011;149;51.094;17.002;2023-06-22T05:12:03;28.50;;;25.50;;
323;SDS011;149;51.094;17.002;2023-06-22T05:14:34;28.63;;;26.00;;
323;SDS011;149;51.094;17.002;2023-06-22T05:17:02;27.33;;;24.83;;
323;SDS011;149;51.094;17.002;2023-06-22T05:19:30;28.30;;;25.70;;
323;SDS011;149;51.094;17.002;2023-06-22T05:22:00;25.90;;;23.60;;
323;SDS011;149;51.094;17.002;2023-06-22T05:24:28;28.53;;;25.73;;
323;SDS011;149;51.094;17.002;2023-06-22T05:26:55;27.37;;;24.70;;
323;SDS011;149;51.094;17.002;2023-06-22T05:29:22;26.23;;;23.73;;
323;SDS011;149;51.094;17.002;2023-06-22T05:31:53;27.30;;;24.70;;
323;SDS011;149;51.094;17.002;2023-06-22T05:34:20;25.10;;;22.73;;
323;SDS011;149;51.094;17.002;2023-06-22T05:36:47;25.67;;;23.00;;
323;SDS011;149;51.094;17.002;2023-06-22T05:39:17;21.73;;;19.47;;
323;SDS011;149;51.094;17.002;2023-06-22T05:41:50;21.57;;;19.37;;
323;SDS011;149;51.094;17.002;2023-06-22T05:44:19;22.47;;;20.27;;
323;SDS011;149;51.094;17.002;2023-06-22T05:46:47;20.77;;;18.80;;
323;SDS011;149;51.094;17.002;2023-06-22T05:49:14;22.23;;;20.13;;
323;SDS011;149;51.094;17.002;2023-06-22T05:51:44;20.47;;;18.57;;
323;SDS011;149;51.094;17.002;2023-06-22T05:54:14;19.60;;;17.70;;
323;SDS011;149;51.094;17.002;2023-06-22T05:56:46;17.13;;;15.63;;
323;SDS011;149;51.094;17.002;2023-06-22T05:59:14;17.90;;;16.30;;
323;SDS011;149;51.094;17.002;2023-06-22T06:01:41;16.80;;;15.17;;
323;SDS011;149;51.094;17.002;2023-06-22T06:04:09;17.20;;;14.50;;
323;SDS011;149;51.094;17.002;2023-06-22T06:06:36;15.30;;;13.90;;
323;SDS011;149;51.094;17.002;2023-06-22T06:09:05;17.87;;;16.17;;
323;SDS011;149;51.094;17.002;2023-06-22T06:11:36;15.10;;;13.80;;
323;SDS011;149;51.094;17.002;2023-06-22T06:14:03;15.50;;;14.07;;
323;SDS011;149;51.094;17.002;2023-06-22T06:16:30;16.60;;;15.07;;
323;SDS011;149;51.094;17.002;2023-06-22T06:18:58;16.90;;;15.50;;
323;SDS011;149;51.094;17.002;2023-06-22T06:21:29;16.73;;;15.03;;
323;SDS011;149;51.094;17.002;2023-06-22T06:23:58;16.50;;;14.90;;
323;SDS011;149;51.094;17.002;2023-06-22T06:26:27;16.83;;;15.23;;
323;SDS011;149;51.094;17.002;2023-06-22T06:28:56;17.27;;;15.67;;
323;SDS011;149;51.094;17.002;2023-06-22T06:31:24;16.20;;;14.80;;
323;SDS011;149;51.094;17.002;2023-06-22T06:33:54;15.03;;;13.63;;
323;SDS011;149;51.094;17.002;2023-06-22T06:36:21;16.83;;;15.37;;
323;SDS011;149;51.094;17.002;2023-06-22T06:38:50;14.97;;;13.30;;
323;SDS011;149;51.094;17.002;2023-06-22T06:41:17;14.97;;;13.57;;
323;SDS011;149;51.094;17.002;2023-06-22T06:43:44;14.57;;;13.40;;
323;SDS011;149;51.094;17.002;2023-06-22T06:46:13;15.70;;;14.10;;
323;SDS011;149;51.094;17.002;2023-06-22T06:48:40;14.73;;;13.23;;
323;SDS011;149;51.094;17.002;2023-06-22T06:51:09;14.53;;;13.03;;
323;SDS011;149;51.094;17.002;2023-06-22T06:53:37;15.97;;;14.57;;
323;SDS011;149;51.094;17.002;2023-06-22T06:56:05;15.67;;;14.13;;
323;SDS011;149;51.094;17.002;2023-06-22T06:58:32;15.57;;;13.60;;
323;SDS011;149;51.094;17.002;2023-06-22T07:00:59;15.87;;;14.30;;
323;SDS011;149;51.094;17.002;2023-06-22T07:03:27;13.37;;;12.27;;
323;SDS011;149;51.094;17.002;2023-06-22T07:05:55;13.63;;;12.43;;
323;SDS011;149;51.094;17.002;2023-06-22T07:08:24;13.90;;;12.57;;
323;SDS011;149;51.094;17.002;2023-06-22T07:10:54;16.67;;;15.17;;
323;SDS011;149;51.094;17.002;2023-06-22T07:13:23;14.60;;;13.37;;
323;SDS011;149;51.094;17.002;2023-06-22T07:15:50;14.90;;;13.67;;
323;SDS011;149;51.094;17.002;2023-06-22T07:18:21;15.73;;;14.47;;
323;SDS011;149;51.094;17.002;2023-06-22T07:20:53;16.73;;;15.37;;
323;SDS011;149;51.094;17.002;2023-06-22T07:23:21;15.33;;;13.80;;
323;SDS011;149;51.094;17.002;2023-06-22T07:25:57;15.60;;;14.40;;
323;SDS011;149;51.094;17.002;2023-06-22T07:28:28;16.33;;;14.80;;
323;SDS011;149;51.094;17.002;2023-06-22T07:31:11;19.03;;;17.10;;
323;SDS011;149;51.094;17.002;2023-06-22T07:33:39;18.80;;;17.20;;
323;SDS011;149;51.094;17.002;2023-06-22T07:36:06;17.20;;;15.70;;
323;SDS011;149;51.094;17.002;2023-06-22T07:38:37;16.37;;;15.07;;
323;SDS011;149;51.094;17.002;2023-06-22T07:41:06;16.70;;;15.03;;
323;SDS011;149;51.094;17.002;2023-06-22T07:43:36;17.60;;;16.03;;
323;SDS011;149;51.094;17.002;2023-06-22T07:46:06;16.90;;;15.27;;
323;SDS011;149;51.094;17.002;2023-06-22T07:48:33;16.83;;;15.53;;
323;SDS011;149;51.094;17.002;2023-06-22T07:51:06;15.47;;;14.13;;
323;SDS011;149;51.094;17.002;2023-06-22T07:53:42;16.93;;;15.33;;
323;SDS011;149;51.094;17.002;2023-06-22T07:56:10;17.53;;;15.90;;
323;SDS011;149;51.094;17.002;2023-06-22T07:58:45;15.57;;;14.33;;
323;SDS011;149;51.094;17.002;2023-06-22T08:01:13;17.93;;;16.33;;
323;SDS011;149;51.094;17.002;2023-06-22T08:03:43;19.00;;;16.93;;
323;SDS011;149;51.094;17.002;2023-06-22T08:06:13;17.67;;;16.00;;
323;SDS011;149;51.094;17.002;2023-06-22T08:08:40;18.17;;;16.57;;
323;SDS011;149;51.094;17.002;2023-06-22T08:11:09;18.20;;;16.57;;
323;SDS011;149;51.094;17.002;2023-06-22T08:13:36;17.47;;;15.97;;
323;SDS011;149;51.094;17.002;2023-06-22T08:16:05;16.47;;;15.07;;
323;SDS011;149;51.094;17.002;2023-06-22T08:18:33;16.07;;;14.87;;
323;SDS011;149;51.094;17.002;2023-06-22T08:21:01;16.60;;;15.10;;
323;SDS011;149;51.094;17.002;2023-06-22T08:23:31;15.57;;;14.27;;
323;SDS011;149;51.094;17.002;2023-06-22T08:25:59;14.60;;;13.43;;
323;SDS011;149;51.094;17.002;2023-06-22T08:28:26;15.90;;;14.60;;
323;SDS011;149;51.094;17.002;2023-06-22T08:30:54;17.67;;;16.07;;
323;SDS011;149;51.094;17.002;2023-06-22T08:33:21;17.33;;;16.03;;
323;SDS011;149;51.094;17.002;2023-06-22T08:35:54;16.27;;;15.03;;
323;SDS011;149;51.094;17.002;2023-06-22T08:38:22;17.37;;;15.90;;
323;SDS011;149;51.094;17.002;2023-06-22T08:40:50;17.00;;;15.70;;
323;SDS011;149;51.094;17.002;2023-06-22T08:43:18;16.47;;;15.37;;
323;SDS011;149;51.094;17.002;2023-06-22T08:45:46;16.57;;;15.27;;
323;SDS011;149;51.094;17.002;2023-06-22T08:48:13;15.73;;;14.63;;
323;SDS011;149;51.094;17.002;2023-06-22T08:50:40;14.90;;;13.90;;
323;SDS011;149;51.094;17.002;2023-06-22T08:53:08;17.40;;;15.67;;
323;SDS011;149;51.094;17.002;2023-06-22T08:55:36;17.47;;;16.07;;
323;SDS011;149;51.094;17.002;2023-06-22T08:58:04;16.00;;;14.70;;
323;SDS011;149;51.094;17.002;2023-06-22T09:00:33;14.90;;;13.70;;
323;SDS011;149;51.094;17.002;2023-06-22T09:03:02;13.87;;;12.77;;
323;SDS011;149;51.094;17.002;2023-06-22T09:05:30;14.40;;;13.30;;
323;SDS011;149;51.094;17.002;2023-06-22T09:08:02;14.23;;;13.23;;
323;SDS011;149;51.094;17.002;2023-06-22T09:10:30;14.33;;;13.13;;
323;SDS011;149;51.094;17.002;2023-06-22T09:13:00;15.77;;;14.43;;
323;SDS011;149;51.094;17.002;2023-06-22T09:15:27;15.40;;;14.23;;
323;SDS011;149;51.094;17.002;2023-06-22T09:17:54;15.63;;;14.37;;
323;SDS011;149;51.094;17.002;2023-06-22T09:20:25;14.30;;;13.20;;
323;SDS011;149;51.094;17.002;2023-06-22T09:22:56;13.90;;;12.80;;
323;SDS011;149;51.094;17.002;2023-06-22T09:25:25;14.13;;;12.90;;
323;SDS011;149;51.094;17.002;2023-06-22T09:27:55;13.80;;;12.60;;
323;SDS011;149;51.094;17.002;2023-06-22T09:30:23;12.07;;;11.07;;
323;SDS011;149;51.094;17.002;2023-06-22T09:32:50;14.60;;;13.50;;
323;SDS011;149;51.094;17.002;2023-06-22T09:35:18;14.90;;;13.70;;
323;SDS011;149;51.094;17.002;2023-06-22T09:37:48;14.37;;;13.27;;
323;SDS011;149;51.094;17.002;2023-06-22T09:40:18;14.17;;;13.07;;
323;SDS011;149;51.094;17.002;2023-06-22T09:42:46;14.30;;;13.10;;
323;SDS011;149;51.094;17.002;2023-06-22T09:45:16;13.37;;;12.27;;
323;SDS011;149;51.094;17.002;2023-06-22T09:47:44;15.13;;;13.90;;
323;SDS011;149;51.094;17.002;2023-06-22T09:50:14;14.80;;;13.20;;
323;SDS011;149;51.094;17.002;2023-06-22T09:52:41;13.17;;;11.97;;
323;SDS011;149;51.094;17.002;2023-06-22T09:55:14;14.33;;;12.97;;
323;SDS011;149;51.094;17.002;2023-06-22T09:57:42;15.10;;;13.73;;
323;SDS011;149;51.094;17.002;2023-06-22T10:00:10;13.63;;;12.63;;
323;SDS011;149;51.094;17.002;2023-06-22T10:02:40;13.80;;;12.70;;
323;SDS011;149;51.094;17.002;2023-06-22T10:05:09;13.57;;;12.37;;
323;SDS011;149;51.094;17.002;2023-06-22T10:07:37;17.73;;;16.33;;
323;SDS011;149;51.094;17.002;2023-06-22T10:10:10;13.37;;;12.37;;
323;SDS011;149;51.094;17.002;2023-06-22T10:12:46;13.73;;;12.50;;
323;SDS011;149;51.094;17.002;2023-06-22T10:15:13;13.47;;;12.40;;
323;SDS011;149;51.094;17.002;2023-06-22T10:17:41;12.13;;;11.23;;
323;SDS011;149;51.094;17.002;2023-06-22T10:20:09;12.00;;;11.00;;
323;SDS011;149;51.094;17.002;2023-06-22T10:22:39;12.27;;;11.30;;
323;SDS011;149;51.094;17.002;2023-06-22T10:25:07;11.37;;;10.57;;
323;SDS011;149;51.094;17.002;2023-06-22T10:27:34;12.23;;;11.33;;
323;SDS011;149;51.094;17.002;2023-06-22T10:30:02;16.17;;;12.13;;
323;SDS011;149;51.094;17.002;2023-06-22T10:32:31;14.30;;;12.90;;
323;SDS011;149;51.094;17.002;2023-06-22T10:34:59;12.60;;;11.70;;
323;SDS011;149;51.094;17.002;2023-06-22T10:37:26;12.27;;;11.40;;
323;SDS011;149;51.094;17.002;2023-06-22T10:39:54;12.23;;;11.33;;
323;SDS011;149;51.094;17.002;2023-06-22T10:42:22;14.03;;;12.33;;
323;SDS011;149;51.094;17.002;2023-06-22T10:44:49;11.10;;;10.20;;
323;SDS011;149;51.094;17.002;2023-06-22T10:47:19;12.00;;;10.87;;
323;SDS011;149;51.094;17.002;2023-06-22T10:49:47;12.23;;;11.23;;
323;SDS011;149;51.094;17.002;2023-06-22T10:52:14;11.77;;;10.70;;
323;SDS011;149;51.094;17.002;2023-06-22T10:54:41;14.70;;;10.77;;
323;SDS011;149;51.094;17.002;2023-06-22T10:57:11;11.83;;;11.03;;
323;SDS011;149;51.094;17.002;2023-06-22T10:59:39;11.27;;;10.47;;
323;SDS011;149;51.094;17.002;2023-06-22T11:02:08;12.97;;;11.77;;
323;SDS011;149;51.094;17.002;2023-06-22T11:04:36;12.50;;;11.50;;
323;SDS011;149;51.094;17.002;2023-06-22T11:07:04;11.70;;;10.60;;
323;SDS011;149;51.094;17.002;2023-06-22T11:09:32;13.40;;;12.20;;
323;SDS011;149;51.094;17.002;2023-06-22T11:11:59;11.93;;;11.03;;
323;SDS011;149;51.094;17.002;2023-06-22T11:14:28;11.97;;;11.07;;
323;SDS011;149;51.094;17.002;2023-06-22T11:16:55;11.57;;;10.77;;
323;SDS011;149;51.094;17.002;2023-06-22T11:19:23;12.80;;;11.90;;
323;SDS011;149;51.094;17.002;2023-06-22T11:21:50;10.80;;;10.00;;
323;SDS011;149;51.094;17.002;2023-06-22T11:24:17;11.50;;;10.60;;
323;SDS011;149;51.094;17.002;2023-06-22T11:26:45;11.67;;;10.60;;
323;SDS011;149;51.094;17.002;2023-06-22T11:29:12;11.43;;;10.53;;
323;SDS011;149;51.094;17.002;2023-06-22T11:31:58;11.63;;;10.73;;
323;SDS011;149;51.094;17.002;2023-06-22T11:34:26;11.70;;;10.70;;
323;SDS011;149;51.094;17.002;2023-06-22T11:36:54;11.77;;;10.97;;
323;SDS011;149;51.094;17.002;2023-06-22T11:39:21;11.87;;;10.97;;
323;SDS011;149;51.094;17.002;2023-06-22T11:42:08;11.20;;;10.30;;
323;SDS011;149;51.094;17.002;2023-06-22T11:44:35;10.57;;;9.77;;
323;SDS011;149;51.094;17.002;2023-06-22T11:47:02;10.53;;;9.77;;
323;SDS011;149;51.094;17.002;2023-06-22T11:49:31;11.70;;;10.90;;
323;SDS011;149;51.094;17.002;2023-06-22T11:51:58;11.70;;;10.70;;
323;SDS011;149;51.094;17.002;2023-06-22T11:54:27;11.10;;;10.17;;
323;SDS011;149;51.094;17.002;2023-06-22T11:56:55;11.93;;;10.80;;
323;SDS011;149;51.094;17.002;2023-06-22T11:59:22;12.03;;;11.00;;
323;SDS011;149;51.094;17.002;2023-06-22T12:01:50;10.97;;;10.17;;
323;SDS011;149;51.094;17.002;2023-06-22T12:04:17;11.67;;;10.57;;
323;SDS011;149;51.094;17.002;2023-06-22T12:06:45;10.37;;;9.67;;
323;SDS011;149;51.094;17.002;2023-06-22T12:09:13;11.23;;;10.20;;
323;SDS011;149;51.094;17.002;2023-06-22T12:11:41;10.37;;;9.47;;
323;SDS011;149;51.094;17.002;2023-06-22T12:14:08;12.53;;;11.43;;
323;SDS011;149;51.094;17.002;2023-06-22T12:19:18;10.17;;;9.17;;
323;SDS011;149;51.094;17.002;2023-06-22T12:21:46;10.23;;;9.53;;
323;SDS011;149;51.094;17.002;2023-06-22T12:24:14;10.60;;;9.80;;
323;SDS011;149;51.094;17.002;2023-06-22T12:26:42;9.40;;;8.70;;
323;SDS011;149;51.094;17.002;2023-06-22T12:29:09;10.87;;;9.87;;
323;SDS011;149;51.094;17.002;2023-06-22T12:31:38;10.00;;;9.30;;
323;SDS011;149;51.094;17.002;2023-06-22T12:34:06;11.03;;;9.93;;
323;SDS011;149;51.094;17.002;2023-06-22T12:36:33;10.67;;;9.93;;
323;SDS011;149;51.094;17.002;2023-06-22T12:39:00;10.07;;;9.07;;
323;SDS011;149;51.094;17.002;2023-06-22T12:41:27;9.97;;;8.97;;
323;SDS011;149;51.094;17.002;2023-06-22T12:43:55;10.13;;;9.33;;
323;SDS011;149;51.094;17.002;2023-06-22T12:46:22;9.87;;;8.97;;
323;SDS011;149;51.094;17.002;2023-06-22T12:48:50;9.90;;;9.10;;
323;SDS011;149;51.094;17.002;2023-06-22T12:51:21;10.13;;;9.07;;
323;SDS011;149;51.094;17.002;2023-06-22T12:53:51;9.57;;;8.77;;
323;SDS011;149;51.094;17.002;2023-06-22T12:56:32;9.80;;;9.03;;
323;SDS011;149;51.094;17.002;2023-06-22T12:59:08;9.80;;;9.00;;
323;SDS011;149;51.094;17.002;2023-06-22T13:01:37;10.20;;;9.20;;
323;SDS011;149;51.094;17.002;2023-06-22T13:04:04;9.30;;;8.60;;
323;SDS011;149;51.094;17.002;2023-06-22T13:06:37;10.30;;;9.40;;
323;SDS011;149;51.094;17.002;2023-06-22T13:09:09;9.97;;;9.17;;
323;SDS011;149;51.094;17.002;2023-06-22T13:11:47;9.20;;;8.50;;
323;SDS011;149;51.094;17.002;2023-06-22T13:14:15;10.03;;;9.23;;
323;SDS011;149;51.094;17.002;2023-06-22T13:16:42;9.20;;;8.50;;
323;SDS011;149;51.094;17.002;2023-06-22T13:19:09;9.37;;;8.47;;
323;SDS011;149;51.094;17.002;2023-06-22T13:21:37;10.10;;;9.30;;
323;SDS011;149;51.094;17.002;2023-06-22T13:24:05;10.37;;;9.33;;
323;SDS011;149;51.094;17.002;2023-06-22T13:26:32;9.83;;;9.00;;
323;SDS011;149;51.094;17.002;2023-06-22T13:29:00;10.60;;;9.60;;
323;SDS011;149;51.094;17.002;2023-06-22T13:31:27;9.80;;;9.10;;
323;SDS011;149;51.094;17.002;2023-06-22T13:33:55;9.97;;;9.17;;
323;SDS011;149;51.094;17.002;2023-06-22T13:36:22;8.77;;;8.13;;
323;SDS011;149;51.094;17.002;2023-06-22T13:38:51;10.20;;;9.30;;
323;SDS011;149;51.094;17.002;2023-06-22T13:41:22;8.60;;;8.00;;
323;SDS011;149;51.094;17.002;2023-06-22T13:43:52;8.93;;;8.23;;
323;SDS011;149;51.094;17.002;2023-06-22T13:46:19;7.90;;;7.10;;
323;SDS011;149;51.094;17.002;2023-06-22T13:48:47;8.43;;;7.77;;
323;SDS011;149;51.094;17.002;2023-06-22T13:51:17;8.97;;;8.27;;
323;SDS011;149;51.094;17.002;2023-06-22T13:53:45;9.20;;;8.60;;
323;SDS011;149;51.094;17.002;2023-06-22T13:56:12;8.30;;;7.73;;
323;SDS011;149;51.094;17.002;2023-06-22T13:58:40;9.23;;;8.53;;
323;SDS011;149;51.094;17.002;2023-06-22T14:01:07;8.37;;;7.67;;
323;SDS011;149;51.094;17.002;2023-06-22T14:03:43;9.33;;;8.53;;
323;SDS011;149;51.094;17.002;2023-06-22T14:06:13;8.90;;;8.10;;
323;SDS011;149;51.094;17.002;2023-06-22T14:08:40;8.73;;;8.03;;
323;SDS011;149;51.094;17.002;2023-06-22T14:11:09;8.73;;;8.10;;
323;SDS011;149;51.094;17.002;2023-06-22T14:13:37;8.60;;;7.70;;
323;SDS011;149;51.094;17.002;2023-06-22T14:16:04;9.83;;;9.13;;
323;SDS011;149;51.094;17.002;2023-06-22T14:18:32;9.57;;;8.87;;
323;SDS011;149;51.094;17.002;2023-06-22T14:21:00;9.97;;;9.17;;
323;SDS011;149;51.094;17.002;2023-06-22T14:23:27;8.93;;;8.13;;
323;SDS011;149;51.094;17.002;2023-06-22T14:25:55;8.50;;;7.90;;
323;SDS011;149;51.094;17.002;2023-06-22T14:28:22;9.20;;;8.40;;
323;SDS011;149;51.094;17.002;2023-06-22T14:30:50;8.80;;;8.20;;
323;SDS011;149;51.094;17.002;2023-06-22T14:33:17;9.00;;;8.40;;
323;SDS011;149;51.094;17.002;2023-06-22T14:35:44;9.70;;;8.80;;
323;SDS011;149;51.094;17.002;2023-06-22T14:38:13;8.60;;;8.00;;
323;SDS011;149;51.094;17.002;2023-06-22T14:40:40;10.57;;;9.47;;
323;SDS011;149;51.094;17.002;2023-06-22T14:43:30;10.10;;;8.47;;
323;SDS011;149;51.094;17.002;2023-06-22T14:46:00;9.53;;;8.73;;
323;SDS011;149;51.094;17.002;2023-06-22T14:48:28;9.73;;;9.03;;
323;SDS011;149;51.094;17.002;2023-06-22T14:50:56;10.20;;;9.40;;
323;SDS011;149;51.094;17.002;2023-06-22T14:53:23;10.83;;;9.93;;
323;SDS011;149;51.094;17.002;2023-06-22T14:55:53;9.93;;;9.23;;
323;SDS011;149;51.094;17.002;2023-06-22T14:58:21;9.97;;;9.17;;
323;SDS011;149;51.094;17.002;2023-06-22T15:00:48;9.70;;;9.00;;
323;SDS011;149;51.094;17.002;2023-06-22T15:03:17;10.20;;;9.40;;
323;SDS011;149;51.094;17.002;2023-06-22T15:05:51;9.80;;;8.97;;
323;SDS011;149;51.094;17.002;2023-06-22T15:08:20;10.13;;;9.30;;
323;SDS011;149;51.094;17.002;2023-06-22T15:10:47;10.30;;;9.50;;
323;SDS011;149;51.094;17.002;2023-06-22T15:13:15;10.57;;;9.67;;
323;SDS011;149;51.094;17.002;2023-06-22T15:15:44;10.33;;;9.47;;
323;SDS011;149;51.094;17.002;2023-06-22T15:18:12;12.00;;;8.87;;
323;SDS011;149;51.094;17.002;2023-06-22T15:20:40;10.07;;;9.37;;
323;SDS011;149;51.094;17.002;2023-06-22T15:23:11;9.07;;;8.37;;
323;SDS011;149;51.094;17.002;2023-06-22T15:25:41;10.00;;;9.00;;